createdAt,value
2022-10-09T00:02:40.844Z,94.16
2022-10-09T00:05:45.571Z,93.85
2022-10-09T00:08:50.499Z,93.66
2022-10-09T00:12:01.732Z,93.74
2022-10-09T00:15:04.792Z,93.46
2022-10-09T00:18:10.287Z,93.40
2022-10-09T00:21:31.484Z,93.00
2022-10-09T00:24:34.760Z,92.91
2022-10-09T00:27:37.410Z,93.28
2022-10-09T00:30:40.557Z,93.69
2022-10-09T00:33:44.403Z,93.73
2022-10-09T00:36:47.841Z,93.88
2022-10-09T00:39:50.660Z,93.86
2022-10-09T00:43:02.700Z,93.59
2022-10-09T00:46:06.079Z,93.54
2022-10-09T00:49:32.111Z,93.66
2022-10-09T00:52:36.808Z,93.50
2022-10-09T00:55:41.218Z,93.72
2022-10-09T00:58:43.982Z,93.57
2022-10-09T01:01:47.729Z,93.78
2022-10-09T01:04:53.564Z,93.80
2022-10-09T01:08:08.324Z,93.76
2022-10-09T01:11:44.856Z,94.23
2022-10-09T01:15:03.621Z,94.05
2022-10-09T01:18:18.372Z,94.29
2022-10-09T01:21:30.338Z,94.42
2022-10-09T01:25:02.031Z,94.19
2022-10-09T01:28:07.886Z,94.16
2022-10-09T01:31:13.180Z,94.45
2022-10-09T01:34:19.183Z,94.66
2022-10-09T01:37:22.970Z,94.26
2022-10-09T01:40:27.138Z,93.95
2022-10-09T01:43:30.111Z,94.28
2022-10-09T01:46:33.669Z,94.54
2022-10-09T01:50:01.180Z,94.51
2022-10-09T01:53:07.867Z,94.46
2022-10-09T01:56:14.785Z,94.66
2022-10-09T01:59:22.315Z,94.93
2022-10-09T02:02:26.845Z,94.92
2022-10-09T02:05:32.089Z,95.11
2022-10-09T02:08:37.520Z,95.14
2022-10-09T02:11:46.495Z,95.39
2022-10-09T02:14:51.461Z,95.54
2022-10-09T02:18:00.549Z,95.38
2022-10-09T02:21:10.715Z,95.12
2022-10-09T02:24:22.360Z,94.86
2022-10-09T02:27:27.515Z,94.87
2022-10-09T02:30:47.460Z,95.20
2022-10-09T02:33:58.120Z,95.43
2022-10-09T02:37:01.453Z,95.34
2022-10-09T02:40:09.749Z,95.61
2022-10-09T02:43:13.521Z,95.47
2022-10-09T02:46:16.971Z,95.25
2022-10-09T02:49:20.507Z,94.92
2022-10-09T02:52:22.971Z,94.92
2022-10-09T02:55:27.181Z,94.85
2022-10-09T02:58:31.348Z,95.37
2022-10-09T03:01:34.827Z,95.44
2022-10-09T03:04:37.365Z,95.71
2022-10-09T03:07:40.846Z,95.83
2022-10-09T03:10:43.796Z,95.64
2022-10-09T03:13:47.503Z,95.53
2022-10-09T03:16:51.118Z,95.23
2022-10-09T03:19:59.543Z,95.36
2022-10-09T03:23:06.511Z,95.64
2022-10-09T03:26:15.413Z,95.66
2022-10-09T03:29:18.706Z,95.55
2022-10-09T03:32:22.983Z,95.78
2022-10-09T03:35:28.832Z,95.45
2022-10-09T03:38:39.525Z,95.45
2022-10-09T03:41:45.214Z,95.53
2022-10-09T03:44:55.761Z,95.49
2022-10-09T03:47:59.896Z,95.48
2022-10-09T03:51:03.980Z,95.49
2022-10-09T03:54:06.797Z,95.43
2022-10-09T03:57:11.807Z,95.68
2022-10-09T04:00:15.453Z,95.60
2022-10-09T04:03:20.309Z,95.62
2022-10-09T04:06:23.575Z,95.94
2022-10-09T04:09:27.136Z,95.98
2022-10-09T04:12:31.842Z,95.74
2022-10-09T04:15:37.739Z,96.18
2022-10-09T04:18:46.683Z,95.90
2022-10-09T04:21:50.723Z,95.83
2022-10-09T04:24:54.973Z,96.10
2022-10-09T04:28:01.209Z,96.48
2022-10-09T04:31:04.400Z,96.34
2022-10-09T04:34:07.613Z,96.46
2022-10-09T04:37:10.368Z,96.68
2022-10-09T04:40:14.113Z,97.02
2022-10-09T04:43:16.794Z,97.39
2022-10-09T04:46:20.412Z,97.77
2022-10-09T04:49:25.816Z,98.37
2022-10-09T04:52:30.566Z,97.90
2022-10-09T04:55:37.328Z,97.77
2022-10-09T04:58:41.724Z,97.68
2022-10-09T05:01:45.855Z,97.60
2022-10-09T05:04:58.554Z,97.36
2022-10-09T05:08:03.510Z,97.15
2022-10-09T05:11:09.237Z,97.00
2022-10-09T05:14:15.454Z,96.74
2022-10-09T05:17:23.243Z,96.48
2022-10-09T05:20:33.580Z,96.19
2022-10-09T05:23:38.465Z,95.74
2022-10-09T05:26:41.905Z,95.32
2022-10-09T05:29:48.722Z,94.86
2022-10-09T05:32:55.096Z,94.30
2022-10-09T05:36:02.459Z,94.17
2022-10-09T05:39:12.267Z,94.04
2022-10-09T05:42:16.402Z,94.00
2022-10-09T05:58:37.552Z,92.78
2022-10-09T06:05:34.911Z,92.31
2022-10-09T06:08:39.640Z,92.10
2022-10-09T06:11:45.649Z,91.98
2022-10-09T06:14:52.123Z,91.87
2022-10-09T06:17:57.990Z,91.91
2022-10-09T06:21:15.663Z,91.79
2022-10-09T06:24:29.041Z,91.58
2022-10-09T06:27:41.633Z,91.39
2022-10-09T06:30:52.733Z,91.05
2022-10-09T06:33:57.732Z,90.93
2022-10-09T06:37:11.383Z,90.62
2022-10-09T06:40:15.399Z,90.00
2022-10-09T06:43:24.925Z,87.61
2022-10-09T06:46:40.454Z,83.41
2022-10-09T06:49:51.774Z,78.98
2022-10-09T06:52:56.514Z,75.67
2022-10-09T06:56:00.646Z,72.31
2022-10-09T06:59:12.411Z,69.10
2022-10-09T07:02:16.990Z,66.64
2022-10-09T07:05:21.437Z,64.13
2022-10-09T07:08:34.410Z,63.48
2022-10-09T07:11:43.300Z,62.08
2022-10-09T07:14:47.552Z,60.89
2022-10-09T07:17:52.016Z,60.45
2022-10-09T07:20:56.498Z,59.38
2022-10-09T07:24:04.033Z,57.86
2022-10-09T07:27:15.439Z,58.20
2022-10-09T07:30:33.305Z,57.44
2022-10-09T07:33:41.673Z,57.05
2022-10-09T07:36:45.075Z,55.85
2022-10-09T07:39:48.653Z,55.20
2022-10-09T07:42:55.585Z,56.08
2022-10-09T07:46:16.428Z,55.33
2022-10-09T07:49:20.418Z,54.96
2022-10-09T07:52:31.548Z,54.22
2022-10-09T07:55:48.673Z,53.82
2022-10-09T07:58:55.143Z,52.41
2022-10-09T08:01:59.715Z,50.93
2022-10-09T08:05:03.623Z,51.39
2022-10-09T08:08:18.392Z,50.35
2022-10-09T08:11:30.878Z,49.93
2022-10-09T08:14:37.992Z,53.07
2022-10-09T08:17:54.416Z,50.44
2022-10-09T08:21:02.022Z,50.59
2022-10-09T08:24:18.314Z,49.76
2022-10-09T08:27:29.323Z,50.67
2022-10-09T08:30:43.493Z,49.71
2022-10-09T08:33:48.389Z,48.94
2022-10-09T08:36:54.038Z,49.15
2022-10-09T08:39:59.067Z,49.93
2022-10-09T08:43:07.164Z,50.97
2022-10-09T08:46:28.427Z,49.22
2022-10-09T08:49:46.373Z,50.29
2022-10-09T08:53:21.126Z,52.36
2022-10-09T08:56:27.781Z,50.45
2022-10-09T08:59:33.456Z,49.15
2022-10-09T09:03:03.657Z,48.38
2022-10-09T09:06:23.717Z,50.71
2022-10-09T09:10:13.927Z,51.20
2022-10-09T09:13:38.643Z,51.34
2022-10-09T09:17:11.610Z,50.96
2022-10-09T09:20:26.819Z,49.29
2022-10-09T09:23:37.632Z,50.18
2022-10-09T09:26:43.565Z,45.71
2022-10-09T09:30:16.397Z,45.11
2022-10-09T09:33:38.087Z,44.18
2022-10-09T09:37:12.303Z,43.86
2022-10-09T09:40:36.293Z,44.24
2022-10-09T09:43:43.102Z,43.41
2022-10-09T09:46:50.524Z,42.62
2022-10-09T09:49:59.172Z,45.10
2022-10-09T09:53:44.510Z,44.20
2022-10-09T10:00:27.040Z,48.61
2022-10-09T10:03:31.365Z,48.68
2022-10-09T10:06:45.710Z,49.13
2022-10-09T10:10:05.440Z,48.99
2022-10-09T10:13:42.390Z,50.00
2022-10-09T10:16:51.255Z,51.31
2022-10-09T10:19:56.003Z,49.12
2022-10-09T10:23:42.739Z,51.77
2022-10-09T10:27:20.483Z,54.70
2022-10-09T10:30:37.295Z,55.50
2022-10-09T10:33:49.871Z,54.56
2022-10-09T10:37:08.396Z,53.78
2022-10-09T10:40:24.592Z,51.57
2022-10-09T10:43:46.306Z,51.95
2022-10-09T10:47:00.154Z,52.40
2022-10-09T10:50:14.453Z,54.72
2022-10-09T10:53:37.943Z,56.08
2022-10-09T10:56:57.703Z,56.24
2022-10-09T11:00:08.655Z,56.51
2022-10-09T11:03:57.455Z,56.01
2022-10-09T11:07:31.720Z,56.18
2022-10-09T11:10:45.390Z,54.92
2022-10-09T11:14:10.450Z,55.44
2022-10-09T11:17:29.870Z,56.04
2022-10-09T11:20:49.664Z,55.60
2022-10-09T11:24:18.359Z,55.51
2022-10-09T11:27:40.449Z,56.04
2022-10-09T11:30:55.415Z,54.47
2022-10-09T11:34:12.719Z,55.30
2022-10-09T11:37:35.093Z,55.37
2022-10-09T11:40:49.350Z,54.98
2022-10-09T11:44:38.648Z,54.27
2022-10-09T11:47:56.475Z,54.58
2022-10-09T11:51:12.178Z,54.64
2022-10-09T11:54:26.055Z,54.80
2022-10-09T11:57:41.424Z,55.49
2022-10-09T12:00:53.935Z,55.27
2022-10-09T12:04:12.372Z,56.13
2022-10-09T12:07:33.763Z,56.11
2022-10-09T12:10:58.661Z,56.34
2022-10-09T12:14:19.580Z,56.72
2022-10-09T12:17:29.539Z,56.31
2022-10-09T12:20:44.171Z,56.60
2022-10-09T12:23:51.843Z,57.48
2022-10-09T12:27:00.690Z,57.62
2022-10-09T12:30:13.730Z,57.51
2022-10-09T12:33:37.259Z,56.84
2022-10-09T12:36:42.905Z,57.61
2022-10-09T12:39:58.420Z,57.50
2022-10-09T12:43:08.220Z,57.11
2022-10-09T12:46:11.720Z,57.52
2022-10-09T12:49:28.707Z,57.74
2022-10-09T12:52:52.745Z,57.08
2022-10-09T12:56:11.032Z,57.37
2022-10-09T12:59:16.658Z,57.26
2022-10-09T13:02:22.822Z,57.00
2022-10-09T13:05:39.257Z,55.92
2022-10-09T13:08:54.477Z,56.62
2022-10-09T13:12:09.332Z,57.19
2022-10-09T13:15:36.570Z,57.03
2022-10-09T13:19:27.799Z,55.83
2022-10-09T13:22:35.741Z,56.97
2022-10-09T13:25:44.810Z,57.84
2022-10-09T13:28:50.007Z,57.76
2022-10-09T13:31:56.459Z,58.80
2022-10-09T13:35:06.373Z,58.44
2022-10-09T13:38:19.488Z,58.05
2022-10-09T13:41:25.792Z,57.31
2022-10-09T13:44:37.628Z,58.17
2022-10-09T13:47:46.706Z,57.44
2022-10-09T13:50:52.595Z,58.63
2022-10-09T13:54:02.592Z,58.54
2022-10-09T13:57:19.435Z,59.58
2022-10-09T14:00:30.589Z,59.78
2022-10-09T14:03:36.205Z,59.63
2022-10-09T14:06:44.654Z,57.91
2022-10-09T14:09:48.374Z,58.19
2022-10-09T14:12:52.215Z,58.51
2022-10-09T14:15:56.671Z,58.35
2022-10-09T14:19:07.083Z,58.72
2022-10-09T14:22:16.627Z,59.19
2022-10-09T14:25:27.653Z,59.63
2022-10-09T14:28:31.381Z,59.58
2022-10-09T14:31:36.709Z,60.31
2022-10-09T14:34:53.966Z,60.88
2022-10-09T14:37:57.575Z,61.63
2022-10-09T14:41:13.535Z,61.74
2022-10-09T14:44:27.317Z,61.40
2022-10-09T14:47:31.655Z,62.10
2022-10-09T14:50:40.034Z,61.68
2022-10-09T14:53:44.314Z,62.35
2022-10-09T14:56:48.605Z,62.06
2022-10-09T14:59:52.433Z,63.05
2022-10-09T15:02:59.588Z,63.51
2022-10-09T15:06:06.699Z,64.79
2022-10-09T15:09:18.437Z,65.14
2022-10-09T15:12:37.373Z,65.43
2022-10-09T15:15:41.475Z,65.95
2022-10-09T15:18:47.641Z,65.70
2022-10-09T15:21:50.858Z,68.22
2022-10-09T15:24:54.332Z,69.25
2022-10-09T15:28:09.586Z,70.02
2022-10-09T15:31:38.311Z,70.59
2022-10-09T15:34:42.155Z,71.62
2022-10-09T15:37:46.337Z,72.13
2022-10-09T15:41:04.609Z,72.71
2022-10-09T15:44:29.509Z,73.69
2022-10-09T15:47:50.926Z,74.59
2022-10-09T15:50:57.455Z,75.16
2022-10-09T15:54:02.453Z,75.14
2022-10-09T15:57:06.385Z,76.12
2022-10-09T16:00:13.601Z,76.89
2022-10-09T16:03:19.243Z,77.67
2022-10-09T16:06:26.460Z,78.15
2022-10-09T16:09:36.734Z,78.66
2022-10-09T16:12:43.827Z,78.87
2022-10-09T16:15:57.929Z,78.85
2022-10-09T16:19:15.448Z,79.60
2022-10-09T16:22:23.778Z,79.46
2022-10-09T16:25:30.657Z,77.74
2022-10-09T16:28:40.439Z,76.62
2022-10-09T16:31:45.615Z,77.10
2022-10-09T16:34:50.232Z,77.83
2022-10-09T16:37:56.394Z,78.26
2022-10-09T16:41:02.291Z,78.56
2022-10-09T16:44:13.447Z,78.73
2022-10-09T16:56:44.707Z,79.65
2022-10-09T16:59:53.121Z,80.42
2022-10-09T17:03:00.112Z,80.52
2022-10-09T17:06:30.634Z,80.81
2022-10-09T17:09:50.467Z,81.04
2022-10-09T17:13:09.380Z,79.97
2022-10-09T17:16:22.523Z,80.55
2022-10-09T17:19:27.414Z,79.40
2022-10-09T17:23:25.529Z,78.65
2022-10-09T17:26:38.442Z,77.68
2022-10-09T17:29:46.048Z,77.04
2022-10-09T17:32:59.616Z,76.27
2022-10-09T17:36:12.684Z,76.01
2022-10-09T17:39:29.391Z,75.27
2022-10-09T17:42:42.436Z,75.85
2022-10-09T17:45:48.419Z,75.05
2022-10-09T17:48:56.163Z,75.29
2022-10-09T17:52:09.590Z,75.34
2022-10-09T17:55:25.833Z,75.35
2022-10-09T17:58:32.073Z,75.72
2022-10-09T18:01:43.550Z,75.67
2022-10-09T18:04:48.878Z,75.16
2022-10-09T18:08:01.776Z,75.19
2022-10-09T18:11:29.403Z,75.25
2022-10-09T18:14:36.575Z,75.37
2022-10-09T18:17:40.035Z,75.40
2022-10-09T18:20:43.241Z,75.23
2022-10-09T18:23:58.409Z,75.11
2022-10-09T18:27:15.683Z,75.35
2022-10-09T18:30:47.333Z,75.66
2022-10-09T18:34:01.721Z,75.81
2022-10-09T18:37:11.989Z,75.94
2022-10-09T18:40:20.686Z,76.14
2022-10-09T18:43:34.599Z,76.23
2022-10-09T18:47:04.428Z,76.21
2022-10-09T18:50:17.465Z,76.24
2022-10-09T18:53:30.341Z,76.32
2022-10-09T18:56:49.535Z,76.64
2022-10-09T19:00:07.001Z,76.92
2022-10-09T19:03:20.062Z,77.65
2022-10-09T19:06:34.558Z,78.19
2022-10-09T19:09:42.059Z,78.97
2022-10-09T19:12:59.673Z,79.46
2022-10-09T19:16:20.556Z,79.93
2022-10-09T19:19:34.372Z,79.85
2022-10-09T19:22:46.685Z,79.60
2022-10-09T19:26:05.554Z,79.26
2022-10-09T19:29:16.526Z,78.56
2022-10-09T19:32:24.036Z,77.97
2022-10-09T19:35:36.014Z,78.02
2022-10-09T19:38:59.602Z,77.17
2022-10-09T19:42:13.796Z,77.02
2022-10-09T19:45:17.519Z,76.59
2022-10-09T19:48:24.699Z,76.43
2022-10-09T19:51:28.522Z,76.42
2022-10-09T19:54:38.073Z,76.50
2022-10-09T19:57:44.200Z,76.58
2022-10-09T20:00:47.500Z,76.39
2022-10-09T20:03:56.507Z,76.28
2022-10-09T20:07:01.846Z,76.12
2022-10-09T20:10:09.681Z,75.85
2022-10-09T20:13:14.427Z,76.13
2022-10-09T20:16:32.255Z,76.17
2022-10-09T20:19:42.285Z,76.20
2022-10-09T20:22:49.022Z,76.45
2022-10-09T20:26:12.413Z,76.90
2022-10-09T20:29:17.082Z,77.40
2022-10-09T20:32:26.876Z,77.95
2022-10-09T20:35:30.687Z,77.98
2022-10-09T20:38:35.580Z,78.09
2022-10-09T20:41:41.540Z,77.53
2022-10-09T20:44:48.046Z,77.48
2022-10-09T20:47:52.243Z,77.23
2022-10-09T20:50:55.109Z,76.95
2022-10-09T20:54:00.307Z,76.26
2022-10-09T20:57:09.951Z,76.47
2022-10-09T21:00:13.591Z,76.04
2022-10-09T21:03:16.388Z,76.42
2022-10-09T21:06:21.673Z,75.66
2022-10-09T21:09:33.264Z,75.91
2022-10-09T21:12:41.632Z,75.88
2022-10-09T21:15:45.913Z,75.78
2022-10-09T21:19:00.431Z,75.33
2022-10-09T21:22:03.681Z,75.07
2022-10-09T21:25:07.011Z,75.10
2022-10-09T21:28:09.768Z,74.42
2022-10-09T21:31:19.323Z,73.92
2022-10-09T21:34:24.685Z,74.14
2022-10-09T21:37:35.551Z,73.63
2022-10-09T21:40:41.242Z,73.27
2022-10-09T21:43:45.679Z,73.44
2022-10-09T21:46:48.403Z,72.55
2022-10-09T21:49:55.220Z,72.85
2022-10-09T21:53:02.272Z,72.48
2022-10-09T21:56:13.518Z,72.34
2022-10-09T21:59:16.527Z,72.01
2022-10-09T22:02:19.563Z,71.55
2022-10-09T22:05:23.084Z,71.35
2022-10-09T22:08:26.601Z,70.83
2022-10-09T22:11:36.873Z,71.13
2022-10-09T22:14:39.554Z,71.10
2022-10-09T22:17:45.820Z,70.99
2022-10-09T22:20:50.072Z,70.95
2022-10-09T22:23:53.047Z,70.59
2022-10-09T22:26:57.301Z,70.97
2022-10-09T22:30:01.933Z,71.26
2022-10-09T22:33:06.349Z,71.06
2022-10-09T22:36:11.219Z,70.55
2022-10-09T22:39:14.863Z,70.83
2022-10-09T22:42:18.465Z,71.42
2022-10-09T22:45:21.000Z,71.14
2022-10-09T22:48:26.487Z,71.83
2022-10-09T22:51:30.593Z,72.94
2022-10-09T22:54:34.673Z,73.82
2022-10-09T22:57:37.859Z,74.22
2022-10-09T23:00:40.884Z,75.32
2022-10-09T23:03:44.677Z,75.87
2022-10-09T23:06:51.333Z,76.10
2022-10-09T23:09:54.234Z,76.38
2022-10-09T23:12:57.142Z,76.46
2022-10-09T23:16:01.743Z,76.96
2022-10-09T23:19:07.048Z,76.95
2022-10-09T23:22:10.864Z,77.09
2022-10-09T23:25:13.687Z,77.39
2022-10-09T23:28:17.120Z,77.61
2022-10-09T23:31:20.168Z,77.68
2022-10-09T23:34:23.073Z,78.38
2022-10-09T23:37:27.222Z,78.39
2022-10-09T23:40:34.626Z,78.63
2022-10-09T23:43:41.420Z,78.92
2022-10-09T23:46:44.262Z,78.64
2022-10-09T23:49:47.120Z,78.60
2022-10-09T23:52:51.033Z,78.73
2022-10-09T23:55:54.609Z,79.33
2022-10-09T23:59:00.531Z,79.73
